Whitleyville, Tennessee
Current Conditions -  °F | °C
As of 1:35 PM on Saturday 20 Dec 2014 (Local Time) from KSRB Reporting Station
Clear Clear  
Wind Chill:   Ceiling: Unl
Heat Index:   Visibility: 10mi
Dew Point: -3°   Wind: 5mph
Humidity: 46%   Direction: 310°NW
Pressure: 30.19"   Gusts: NA
Location:  36.45°N, 85.74°W
Report Text: KSRB 201935Z AUTO 31004KT 10SM CLR 08/M03 A3019 RMK
Loading
Personal Weather Stations






























Interactive Weather Map New forecast layout! Learn more

10-Day Weather Forecast

Advertisements
Track Severe Weather on mobile